createdAt,value
2023-08-25T00:01:32.003Z,8.88
2023-08-25T00:03:58.877Z,8.57
2023-08-25T00:06:25.667Z,7.80
2023-08-25T00:08:52.400Z,8.27
2023-08-25T00:11:19.205Z,7.65
2023-08-25T00:13:45.950Z,8.18
2023-08-25T00:16:13.195Z,8.73
2023-08-25T00:18:40.249Z,8.15
2023-08-25T00:21:07.015Z,8.07
2023-08-25T00:23:33.804Z,8.68
2023-08-25T00:26:00.595Z,8.05
2023-08-25T00:28:27.358Z,7.70
2023-08-25T00:30:56.059Z,8.55
2023-08-25T00:33:22.924Z,7.85
2023-08-25T00:35:51.106Z,8.07
2023-08-25T00:38:17.955Z,8.30
2023-08-25T00:40:44.719Z,8.30
2023-08-25T00:43:11.566Z,8.35
2023-08-25T00:45:42.912Z,8.77
2023-08-25T00:48:12.012Z,8.13
2023-08-25T00:50:41.099Z,8.70
2023-08-25T00:53:09.515Z,8.35
2023-08-25T00:55:36.684Z,8.93
2023-08-25T00:58:07.050Z,7.95
2023-08-25T01:00:34.674Z,8.10
2023-08-25T01:03:02.218Z,8.93
2023-08-25T01:05:29.047Z,8.10
2023-08-25T01:07:58.644Z,7.82
2023-08-25T01:10:48.045Z,7.75
2023-08-25T01:13:21.088Z,7.90
2023-08-25T01:15:54.542Z,8.13
2023-08-25T01:18:31.034Z,8.35
2023-08-25T01:21:00.051Z,7.80
2023-08-25T01:23:36.448Z,8.38
2023-08-25T01:26:04.516Z,7.90
2023-08-25T01:28:31.296Z,7.70
2023-08-25T01:31:00.441Z,7.43
2023-08-25T01:33:32.082Z,7.65
2023-08-25T01:36:23.111Z,7.57
2023-08-25T01:39:08.105Z,7.45
2023-08-25T01:41:50.651Z,7.55
2023-08-25T01:44:21.388Z,7.57
2023-08-25T01:46:52.847Z,8.30
2023-08-25T01:49:20.861Z,7.70
2023-08-25T01:51:47.743Z,8.23
2023-08-25T01:54:17.175Z,7.53
2023-08-25T01:56:44.535Z,8.13
2023-08-25T01:59:11.195Z,8.50
2023-08-25T02:01:38.054Z,7.82
2023-08-25T02:04:04.890Z,8.10
2023-08-25T02:06:31.671Z,8.80
2023-08-25T02:08:58.384Z,7.95
2023-08-25T02:11:25.245Z,8.25
2023-08-25T02:13:51.952Z,8.40
2023-08-25T02:16:19.583Z,7.68
2023-08-25T02:18:46.772Z,8.15
2023-08-25T02:21:13.493Z,8.13
2023-08-25T02:23:41.456Z,8.38
2023-08-25T02:26:08.296Z,7.85
2023-08-25T02:28:36.476Z,7.95
2023-08-25T02:31:30.222Z,8.38
2023-08-25T02:34:01.598Z,8.07
2023-08-25T02:36:28.336Z,8.02
2023-08-25T02:38:55.056Z,7.88
2023-08-25T02:41:21.813Z,7.80
2023-08-25T02:43:48.742Z,8.07
2023-08-25T02:46:16.613Z,8.25
2023-08-25T02:48:43.311Z,7.28
2023-08-25T02:51:16.037Z,8.02
2023-08-25T02:53:42.730Z,7.22
2023-08-25T02:56:09.512Z,7.50
2023-08-25T02:58:36.217Z,7.82
2023-08-25T03:01:13.029Z,6.85
2023-08-25T03:03:40.238Z,7.97
2023-08-25T03:06:07.160Z,7.07
2023-08-25T03:08:33.897Z,7.13
2023-08-25T03:11:04.256Z,7.15
2023-08-25T03:13:34.284Z,8.00
2023-08-25T03:16:03.467Z,7.38
2023-08-25T03:18:30.613Z,7.75
2023-08-25T03:20:57.398Z,7.38
2023-08-25T03:23:24.800Z,7.13
2023-08-25T03:25:51.603Z,7.07
2023-08-25T03:28:18.615Z,7.30
2023-08-25T03:30:45.405Z,6.47
2023-08-25T03:33:12.152Z,6.82
2023-08-25T03:35:39.401Z,7.05
2023-08-25T03:38:06.496Z,6.63
2023-08-25T03:40:34.151Z,6.70
2023-08-25T03:43:00.957Z,7.10
2023-08-25T03:45:28.103Z,7.13
2023-08-25T03:47:55.349Z,7.13
2023-08-25T03:50:22.937Z,7.30
2023-08-25T03:52:51.248Z,7.22
2023-08-25T03:55:18.156Z,7.68
2023-08-25T03:57:44.973Z,8.32
2023-08-25T04:00:12.067Z,7.68
2023-08-25T04:02:41.375Z,6.63
2023-08-25T04:07:35.514Z,7.72
2023-08-25T04:10:02.269Z,8.40
2023-08-25T04:12:28.984Z,10.82
2023-08-25T04:14:55.743Z,8.18
2023-08-25T04:17:22.583Z,8.00
2023-08-25T04:19:49.489Z,8.02
2023-08-25T04:22:16.177Z,7.45
2023-08-25T04:24:43.929Z,7.82
2023-08-25T04:27:10.638Z,8.15
2023-08-25T04:29:37.555Z,7.97
2023-08-25T04:32:04.479Z,8.50
2023-08-25T04:34:31.298Z,7.45
2023-08-25T04:36:57.993Z,7.97
2023-08-25T04:39:25.381Z,8.35
2023-08-25T04:41:54.146Z,8.88
2023-08-25T04:44:20.923Z,9.00
2023-08-25T04:46:47.655Z,7.90
2023-08-25T04:49:14.905Z,8.80
2023-08-25T04:51:41.680Z,8.02
2023-08-25T04:54:08.401Z,8.65
2023-08-25T04:56:36.161Z,8.18
2023-08-25T04:59:02.908Z,8.85
2023-08-25T05:01:30.835Z,8.23
2023-08-25T05:03:57.635Z,8.50
2023-08-25T05:06:24.416Z,8.23
2023-08-25T05:08:51.341Z,8.82
2023-08-25T05:11:18.814Z,7.47
2023-08-25T05:13:45.797Z,7.80
2023-08-25T05:16:13.612Z,8.40
2023-08-25T05:18:40.434Z,7.97
2023-08-25T05:21:07.374Z,7.22
2023-08-25T05:23:34.244Z,7.53
2023-08-25T05:26:01.502Z,7.35
2023-08-25T05:28:28.386Z,7.40
2023-08-25T05:30:55.486Z,7.78
2023-08-25T05:33:22.314Z,7.68
2023-08-25T05:35:49.169Z,7.72
2023-08-25T05:38:16.547Z,7.65
2023-08-25T05:40:43.220Z,7.28
2023-08-25T05:43:10.521Z,6.85
2023-08-25T05:45:37.455Z,7.10
2023-08-25T05:48:04.640Z,7.50
2023-08-25T05:50:31.464Z,6.72
2023-08-25T05:52:58.240Z,7.15
2023-08-25T05:55:25.114Z,7.40
2023-08-25T05:57:52.199Z,6.47
2023-08-25T06:00:19.938Z,6.82
2023-08-25T06:02:46.884Z,7.03
2023-08-25T06:05:14.346Z,7.72
2023-08-25T06:07:41.061Z,7.05
2023-08-25T06:10:09.334Z,6.97
2023-08-25T06:12:36.035Z,6.57
2023-08-25T06:15:03.099Z,7.35
2023-08-25T06:17:30.363Z,6.55
2023-08-25T06:19:57.082Z,6.70
2023-08-25T06:22:24.374Z,6.80
2023-08-25T06:24:51.064Z,6.50
2023-08-25T06:27:19.636Z,6.40
2023-08-25T06:29:47.124Z,6.63
2023-08-25T06:32:15.585Z,7.10
2023-08-25T06:34:42.422Z,6.87
2023-08-25T06:37:09.179Z,6.90
2023-08-25T06:39:35.994Z,6.80
2023-08-25T06:42:03.167Z,7.35
2023-08-25T06:44:30.854Z,6.85
2023-08-25T06:47:00.063Z,8.10
2023-08-25T06:49:27.229Z,7.20
2023-08-25T06:51:54.059Z,7.43
2023-08-25T06:54:23.309Z,7.88
2023-08-25T06:56:50.295Z,8.35
2023-08-25T06:59:17.144Z,7.53
2023-08-25T07:01:44.957Z,7.30
2023-08-25T07:04:12.214Z,8.23
2023-08-25T07:06:38.951Z,7.70
2023-08-25T07:09:05.707Z,7.60
2023-08-25T07:11:32.478Z,7.68
2023-08-25T07:14:00.201Z,7.47
2023-08-25T07:16:28.982Z,7.65
2023-08-25T07:18:55.727Z,6.78
2023-08-25T07:21:22.929Z,7.68
2023-08-25T07:23:51.171Z,7.28
2023-08-25T07:26:17.866Z,7.72
2023-08-25T07:28:44.602Z,7.85
2023-08-25T07:31:11.406Z,8.23
2023-08-25T07:33:38.226Z,7.18
2023-08-25T07:36:06.183Z,8.05
2023-08-25T07:38:32.944Z,7.15
2023-08-25T07:40:59.751Z,7.45
2023-08-25T07:43:26.553Z,8.30
2023-08-25T07:45:54.306Z,7.72
2023-08-25T07:48:21.611Z,6.78
2023-08-25T07:50:48.476Z,8.27
2023-08-25T07:53:15.431Z,7.38
2023-08-25T07:55:43.025Z,7.72
2023-08-25T07:58:11.361Z,8.07
2023-08-25T08:00:39.191Z,8.23
2023-08-25T08:03:09.995Z,7.97
2023-08-25T08:05:37.409Z,7.88
2023-08-25T08:08:04.353Z,8.05
2023-08-25T08:10:31.097Z,8.15
2023-08-25T08:12:58.149Z,7.75
2023-08-25T08:15:25.534Z,8.20
2023-08-25T08:17:53.068Z,7.53
2023-08-25T08:20:20.475Z,8.20
2023-08-25T08:22:47.833Z,8.10
2023-08-25T08:25:15.777Z,7.85
2023-08-25T08:27:43.942Z,7.53
2023-08-25T08:30:11.494Z,8.88
2023-08-25T08:32:40.173Z,6.80
2023-08-25T08:35:11.338Z,7.10
2023-08-25T08:37:39.756Z,7.43
2023-08-25T08:40:09.615Z,7.45
2023-08-25T08:42:43.189Z,7.50
2023-08-25T08:45:12.168Z,6.10
2023-08-25T08:47:40.387Z,6.88
2023-08-25T08:50:08.610Z,8.05
2023-08-25T08:52:35.757Z,7.10
2023-08-25T08:55:06.825Z,7.10
2023-08-25T08:57:33.757Z,7.05
2023-08-25T09:00:00.808Z,7.15
2023-08-25T09:02:32.287Z,7.07
2023-08-25T09:05:00.424Z,7.32
2023-08-25T09:10:00.581Z,8.30
2023-08-25T09:12:28.078Z,7.65
2023-08-25T09:14:54.887Z,7.10
2023-08-25T09:17:23.298Z,7.80
2023-08-25T09:22:18.863Z,7.70
2023-08-25T09:24:46.172Z,8.07
2023-08-25T09:27:24.030Z,8.20
2023-08-25T09:30:05.249Z,8.13
2023-08-25T09:32:32.582Z,8.38
2023-08-25T09:35:23.410Z,8.60
2023-08-25T09:37:50.417Z,9.13
2023-08-25T09:40:18.851Z,8.65
2023-08-25T09:42:46.778Z,8.77
2023-08-25T09:45:13.932Z,8.13
2023-08-25T09:47:44.739Z,8.50
2023-08-25T09:50:19.000Z,9.10
2023-08-25T09:52:48.065Z,9.70
2023-08-25T09:57:46.638Z,10.35
2023-08-25T10:00:14.253Z,10.57
2023-08-25T10:02:41.358Z,9.35
2023-08-25T10:05:11.235Z,9.15
2023-08-25T10:07:38.584Z,8.40
2023-08-25T10:10:07.001Z,8.73
2023-08-25T10:12:36.053Z,8.27
2023-08-25T10:17:32.044Z,8.32
2023-08-25T10:20:02.661Z,8.70
2023-08-25T10:22:30.408Z,8.38
2023-08-25T10:25:02.600Z,7.57
2023-08-25T10:27:30.049Z,10.02
2023-08-25T10:29:58.289Z,8.70
2023-08-25T10:32:25.192Z,9.07
2023-08-25T10:34:54.468Z,9.45
2023-08-25T10:37:33.767Z,9.30
2023-08-25T10:40:08.712Z,10.32
2023-08-25T10:42:36.792Z,9.15
2023-08-25T10:45:10.590Z,9.20
2023-08-25T10:47:52.755Z,9.15
2023-08-25T10:50:23.936Z,8.27
2023-08-25T10:52:57.036Z,8.88
2023-08-25T10:55:31.070Z,9.90
2023-08-25T10:58:08.133Z,8.70
2023-08-25T11:00:39.485Z,9.45
2023-08-25T11:03:09.261Z,9.00
2023-08-25T11:05:36.520Z,8.20
2023-08-25T11:08:04.797Z,8.20
2023-08-25T11:10:35.154Z,7.20
2023-08-25T11:13:10.217Z,9.35
2023-08-25T11:15:39.841Z,8.18
2023-08-25T11:18:08.232Z,8.75
2023-08-25T11:20:35.218Z,8.70
2023-08-25T11:23:18.415Z,8.40
2023-08-25T11:25:48.443Z,7.43
2023-08-25T11:28:15.450Z,7.85
2023-08-25T11:30:42.479Z,8.43
2023-08-25T11:33:10.511Z,7.57
2023-08-25T11:35:37.508Z,7.57
2023-08-25T11:38:04.400Z,7.50
2023-08-25T11:40:31.798Z,7.90
2023-08-25T11:42:58.773Z,7.63
2023-08-25T11:45:29.822Z,6.75
2023-08-25T11:47:57.882Z,7.38
2023-08-25T11:50:26.218Z,7.43
2023-08-25T11:52:55.983Z,7.57
2023-08-25T11:55:36.448Z,6.97
2023-08-25T11:58:13.199Z,6.82
2023-08-25T12:00:40.118Z,6.35
2023-08-25T12:03:08.665Z,6.80
2023-08-25T12:05:36.735Z,7.32
2023-08-25T12:08:04.549Z,6.32
2023-08-25T12:10:40.601Z,5.88
2023-08-25T12:13:07.455Z,6.30
2023-08-25T12:15:45.575Z,5.85
2023-08-25T12:18:15.636Z,5.80
2023-08-25T12:20:45.858Z,6.03
2023-08-25T12:23:12.672Z,5.53
2023-08-25T12:25:39.645Z,6.18
2023-08-25T12:28:06.555Z,6.20
2023-08-25T12:30:33.395Z,6.70
2023-08-25T12:33:00.455Z,7.13
2023-08-25T12:35:27.578Z,7.15
2023-08-25T12:37:54.844Z,6.90
2023-08-25T12:40:21.850Z,6.38
2023-08-25T12:42:55.128Z,5.68
2023-08-25T12:45:23.652Z,5.55
2023-08-25T12:47:52.178Z,6.25
2023-08-25T12:50:19.393Z,6.82
2023-08-25T12:52:46.951Z,6.60
2023-08-25T12:55:21.182Z,7.63
2023-08-25T12:57:52.995Z,6.68
2023-08-25T13:00:20.304Z,8.02
2023-08-25T13:02:47.955Z,6.63
2023-08-25T13:05:16.001Z,7.07
2023-08-25T13:07:42.995Z,6.75
2023-08-25T13:10:10.733Z,7.03
2023-08-25T13:12:37.620Z,7.15
2023-08-25T13:15:05.564Z,6.28
2023-08-25T13:17:32.724Z,6.32
2023-08-25T13:19:59.491Z,6.13
2023-08-25T13:22:26.272Z,6.40
2023-08-25T13:24:53.121Z,8.60
2023-08-25T13:27:20.253Z,6.13
2023-08-25T13:29:47.057Z,5.45
2023-08-25T13:32:13.934Z,4.60
2023-08-25T13:34:40.782Z,5.07
2023-08-25T13:37:07.561Z,5.75
2023-08-25T13:39:36.217Z,5.32
2023-08-25T13:42:03.128Z,4.97
2023-08-25T13:44:34.306Z,5.35
2023-08-25T13:47:02.731Z,4.90
2023-08-25T13:49:29.466Z,4.43
2023-08-25T13:51:56.513Z,4.57
2023-08-25T13:54:24.004Z,4.68
2023-08-25T13:56:51.289Z,4.05
2023-08-25T13:59:18.589Z,6.80
2023-08-25T14:01:45.471Z,4.50
2023-08-25T14:04:12.274Z,4.10
2023-08-25T14:06:39.032Z,4.20
2023-08-25T14:09:07.077Z,4.13
2023-08-25T14:11:34.205Z,4.53
2023-08-25T14:14:01.546Z,4.88
2023-08-25T14:16:31.461Z,4.18
2023-08-25T14:18:58.249Z,4.45
2023-08-25T14:21:24.970Z,4.30
2023-08-25T14:23:52.298Z,4.22
2023-08-25T14:26:18.983Z,4.65
2023-08-25T14:28:45.737Z,4.28
2023-08-25T14:31:12.569Z,4.28
2023-08-25T14:33:39.373Z,4.47
2023-08-25T14:36:07.722Z,4.72
2023-08-25T14:38:34.888Z,4.55
2023-08-25T14:41:01.685Z,4.57
2023-08-25T14:43:28.425Z,4.70
2023-08-25T14:45:55.235Z,4.45
2023-08-25T14:48:22.039Z,4.85
2023-08-25T14:50:59.059Z,4.25
2023-08-25T14:53:25.864Z,4.75
2023-08-25T14:55:52.685Z,4.70
2023-08-25T14:58:19.517Z,4.68
2023-08-25T15:00:47.592Z,4.53
2023-08-25T15:03:14.578Z,4.50
2023-08-25T15:05:41.858Z,4.53
2023-08-25T15:08:08.638Z,4.30
2023-08-25T15:10:35.469Z,4.05
2023-08-25T15:13:02.371Z,4.00
2023-08-25T15:15:29.221Z,3.95
2023-08-25T15:17:56.443Z,3.78
2023-08-25T15:20:23.552Z,4.05
2023-08-25T15:22:50.362Z,3.65
2023-08-25T15:25:17.817Z,4.18
2023-08-25T15:27:45.263Z,3.63
2023-08-25T15:30:12.682Z,3.50
2023-08-25T15:32:43.830Z,3.45
2023-08-25T15:35:11.560Z,3.30
2023-08-25T15:37:38.326Z,3.47
2023-08-25T15:40:05.878Z,3.40
2023-08-25T15:42:32.649Z,3.25
2023-08-25T15:45:00.332Z,2.90
2023-08-25T15:47:27.099Z,3.10
2023-08-25T15:49:54.226Z,3.28
2023-08-25T15:52:21.615Z,3.70
2023-08-25T15:54:48.410Z,2.83
2023-08-25T15:57:15.169Z,3.47
2023-08-25T15:59:42.068Z,3.40
2023-08-25T16:02:08.822Z,4.30
2023-08-25T16:04:35.581Z,4.15
2023-08-25T16:07:02.367Z,4.50
2023-08-25T16:09:29.318Z,4.07
2023-08-25T16:11:56.165Z,5.05
2023-08-25T16:14:22.906Z,3.88
2023-08-25T16:16:50.980Z,4.07
2023-08-25T16:19:17.750Z,3.60
2023-08-25T16:21:44.520Z,3.30
2023-08-25T16:24:11.265Z,3.75
2023-08-25T16:26:39.292Z,3.80
2023-08-25T16:29:06.436Z,4.03
2023-08-25T16:31:33.218Z,3.20
2023-08-25T16:34:02.151Z,2.85
2023-08-25T16:36:28.904Z,2.88
2023-08-25T16:38:55.684Z,3.25
2023-08-25T16:41:22.626Z,3.70
2023-08-25T16:43:51.065Z,3.40
2023-08-25T16:46:17.892Z,3.17
2023-08-25T16:48:45.950Z,3.15
2023-08-25T16:51:12.700Z,3.28
2023-08-25T16:53:39.476Z,3.20
2023-08-25T16:56:06.282Z,3.10
2023-08-25T16:58:33.052Z,3.25
2023-08-25T17:00:59.889Z,3.42
2023-08-25T17:03:30.886Z,3.35
2023-08-25T17:06:01.819Z,3.55
2023-08-25T17:08:30.246Z,3.58
2023-08-25T17:10:57.045Z,3.50
2023-08-25T17:13:24.570Z,3.47
2023-08-25T17:15:52.844Z,3.13
2023-08-25T17:18:19.642Z,2.97
2023-08-25T17:20:46.444Z,3.55
2023-08-25T17:23:13.199Z,3.10
2023-08-25T17:25:39.923Z,3.05
2023-08-25T17:28:09.323Z,3.90
2023-08-25T17:30:36.305Z,3.17
2023-08-25T17:33:05.096Z,3.42
2023-08-25T17:35:32.037Z,4.30
2023-08-25T17:37:58.859Z,4.07
2023-08-25T17:40:25.695Z,4.03
2023-08-25T17:42:52.972Z,4.93
2023-08-25T17:45:19.968Z,3.70
2023-08-25T17:47:46.887Z,4.07
2023-08-25T17:50:13.865Z,3.70
2023-08-25T17:52:40.682Z,3.55
2023-08-25T17:55:07.987Z,3.83
2023-08-25T17:57:35.493Z,4.05
2023-08-25T18:00:02.976Z,4.25
2023-08-25T18:02:29.954Z,5.20
2023-08-25T18:04:56.846Z,5.05
2023-08-25T18:07:23.574Z,4.57
2023-08-25T18:09:50.569Z,4.90
2023-08-25T18:12:17.515Z,4.47
2023-08-25T18:14:44.313Z,4.13
2023-08-25T18:17:11.047Z,4.10
2023-08-25T18:19:37.803Z,4.40
2023-08-25T18:22:05.027Z,4.57
2023-08-25T18:24:31.895Z,4.47
2023-08-25T18:26:58.618Z,4.05
2023-08-25T18:29:25.983Z,4.53
2023-08-25T18:31:52.792Z,4.20
2023-08-25T18:34:22.729Z,4.60
2023-08-25T18:36:49.448Z,4.00
2023-08-25T18:39:16.403Z,4.60
2023-08-25T18:41:44.279Z,4.53
2023-08-25T18:44:11.062Z,4.50
2023-08-25T18:46:37.842Z,4.47
2023-08-25T18:49:05.484Z,4.30
2023-08-25T18:51:33.196Z,4.68
2023-08-25T18:54:00.004Z,4.38
2023-08-25T18:56:26.808Z,5.78
2023-08-25T18:58:53.809Z,4.47
2023-08-25T19:01:21.449Z,4.72
2023-08-25T19:03:48.318Z,4.53
2023-08-25T19:06:15.570Z,4.13
2023-08-25T19:08:42.384Z,5.03
2023-08-25T19:11:09.353Z,4.65
2023-08-25T19:13:36.148Z,4.80
2023-08-25T19:16:04.851Z,4.80
2023-08-25T19:18:31.777Z,4.38
2023-08-25T19:21:02.259Z,4.50
2023-08-25T19:23:34.115Z,5.10
2023-08-25T19:26:11.625Z,4.47
2023-08-25T19:28:42.536Z,5.28
2023-08-25T19:31:13.866Z,6.18
2023-08-25T19:33:40.841Z,5.55
2023-08-25T19:36:08.787Z,5.85
2023-08-25T19:38:36.245Z,4.50
2023-08-25T19:41:08.094Z,5.82
2023-08-25T19:43:40.580Z,5.65
2023-08-25T19:46:07.873Z,5.68
2023-08-25T19:48:38.402Z,6.32
2023-08-25T19:51:07.983Z,6.40
2023-08-25T19:53:35.877Z,5.88
2023-08-25T19:56:02.682Z,6.32
2023-08-25T19:58:29.633Z,6.57
2023-08-25T20:00:56.387Z,6.20
2023-08-25T20:03:24.137Z,5.78
2023-08-25T20:06:05.826Z,5.88
2023-08-25T20:08:33.043Z,5.35
2023-08-25T20:11:09.234Z,6.05
2023-08-25T20:13:40.220Z,5.18
2023-08-25T20:16:06.994Z,5.50
2023-08-25T20:18:34.072Z,5.50
2023-08-25T20:21:01.045Z,5.82
2023-08-25T20:23:30.787Z,5.50
2023-08-25T20:25:59.102Z,4.90
2023-08-25T20:28:26.117Z,5.57
2023-08-25T20:30:53.068Z,5.63
2023-08-25T20:33:20.233Z,5.60
2023-08-25T20:35:47.198Z,5.60
2023-08-25T20:38:15.558Z,5.95
2023-08-25T20:40:45.704Z,5.70
2023-08-25T20:43:13.608Z,5.68
2023-08-25T20:45:44.472Z,5.80
2023-08-25T20:48:13.155Z,5.88
2023-08-25T20:50:40.489Z,5.95
2023-08-25T20:53:07.225Z,5.75
2023-08-25T20:55:34.082Z,6.45
2023-08-25T20:58:01.028Z,6.10
2023-08-25T21:00:28.889Z,5.82
2023-08-25T21:02:57.139Z,6.20
2023-08-25T21:05:24.330Z,6.20
2023-08-25T21:07:51.418Z,6.07
2023-08-25T21:10:18.218Z,6.28
2023-08-25T21:12:45.069Z,5.60
2023-08-25T21:15:11.855Z,5.68
2023-08-25T21:17:38.579Z,5.93
2023-08-25T21:20:06.610Z,5.80
2023-08-25T21:22:33.612Z,5.60
2023-08-25T21:25:00.350Z,5.53
2023-08-25T21:27:27.127Z,6.22
2023-08-25T21:29:53.825Z,6.30
2023-08-25T21:32:21.677Z,6.78
2023-08-25T21:34:48.446Z,6.60
2023-08-25T21:37:15.282Z,6.00
2023-08-25T21:39:42.049Z,6.13
2023-08-25T21:42:08.828Z,5.85
2023-08-25T21:44:35.875Z,6.80
2023-08-25T21:47:03.217Z,6.40
2023-08-25T21:49:30.017Z,7.43
2023-08-25T21:51:56.945Z,8.35
2023-08-25T21:54:23.655Z,8.57
2023-08-25T21:56:50.422Z,8.38
2023-08-25T21:59:17.152Z,7.60
2023-08-25T22:01:43.946Z,7.00
2023-08-25T22:04:12.533Z,6.10
2023-08-25T22:06:39.800Z,5.03
2023-08-25T22:09:06.520Z,5.30
2023-08-25T22:11:33.752Z,5.40
2023-08-25T22:14:01.301Z,5.40
2023-08-25T22:16:28.446Z,5.13
2023-08-25T22:18:55.924Z,6.38
2023-08-25T22:21:22.720Z,5.50
2023-08-25T22:23:50.528Z,6.10
2023-08-25T22:26:17.956Z,5.68
2023-08-25T22:28:45.698Z,5.68
2023-08-25T22:31:12.473Z,5.97
2023-08-25T22:36:08.851Z,6.13
2023-08-25T22:38:36.440Z,6.22
2023-08-25T22:41:03.374Z,5.95
2023-08-25T22:43:33.138Z,6.53
2023-08-25T22:46:07.390Z,6.63
2023-08-25T22:48:34.213Z,6.43
2023-08-25T22:51:01.151Z,6.40
2023-08-25T22:53:28.664Z,6.18
2023-08-25T22:55:56.198Z,5.97
2023-08-25T22:58:24.015Z,5.70
2023-08-25T23:00:51.153Z,5.53
2023-08-25T23:03:18.021Z,5.68
2023-08-25T23:05:45.245Z,5.28
2023-08-25T23:08:12.087Z,5.63
2023-08-25T23:10:40.395Z,5.05
2023-08-25T23:13:11.025Z,5.50
2023-08-25T23:15:38.332Z,5.55
2023-08-25T23:18:06.389Z,6.30
2023-08-25T23:20:36.358Z,5.68
2023-08-25T23:23:03.336Z,5.90
2023-08-25T23:25:30.232Z,5.70
2023-08-25T23:27:57.382Z,5.30
2023-08-25T23:30:24.380Z,5.65
2023-08-25T23:32:51.181Z,5.55
2023-08-25T23:35:18.421Z,5.80
2023-08-25T23:37:45.556Z,5.35
2023-08-25T23:40:13.042Z,5.68
2023-08-25T23:42:39.918Z,6.30
2023-08-25T23:45:07.209Z,6.30
2023-08-25T23:47:34.346Z,6.00
2023-08-25T23:50:01.741Z,5.90
2023-08-25T23:52:28.687Z,5.65
2023-08-25T23:54:57.988Z,6.35
2023-08-25T23:59:53.888Z,6.18
